createdAt,value
2023-10-03T00:01:53.646Z,61.56
2023-10-03T00:06:55.322Z,60.55
2023-10-03T00:11:57.002Z,59.02
2023-10-03T00:16:59.086Z,63.84
2023-10-03T00:22:00.859Z,62.74
2023-10-03T00:27:05.812Z,60.85
2023-10-03T00:32:08.868Z,59.81
2023-10-03T00:37:12.040Z,62.60
2023-10-03T00:42:13.714Z,65.06
2023-10-03T00:47:15.735Z,62.34
2023-10-03T00:52:17.476Z,61.27
2023-10-03T00:57:19.655Z,61.81
2023-10-03T01:02:22.764Z,61.10
2023-10-03T01:07:24.464Z,61.30
2023-10-03T01:12:26.428Z,60.24
2023-10-03T01:17:31.614Z,59.37
2023-10-03T01:22:34.296Z,61.61
2023-10-03T01:27:35.962Z,64.01
2023-10-03T01:32:44.220Z,61.95
2023-10-03T01:37:46.476Z,60.92
2023-10-03T01:42:48.637Z,60.62
2023-10-03T01:47:51.061Z,60.22
2023-10-03T01:52:53.761Z,60.84
2023-10-03T01:57:55.428Z,64.20
2023-10-03T02:03:05.813Z,62.34
2023-10-03T02:08:16.629Z,61.29
2023-10-03T02:13:20.602Z,59.84
2023-10-03T02:18:22.618Z,61.29
2023-10-03T02:23:26.129Z,63.87
2023-10-03T02:28:28.784Z,61.66
2023-10-03T02:33:30.790Z,60.52
2023-10-03T02:38:37.570Z,58.68
2023-10-03T02:43:43.089Z,60.44
2023-10-03T02:48:44.748Z,64.15
2023-10-03T02:53:46.985Z,63.20
2023-10-03T02:58:48.822Z,60.56
2023-10-03T03:03:51.145Z,58.82
2023-10-03T03:08:53.245Z,61.43
2023-10-03T03:13:54.973Z,64.43
2023-10-03T03:18:56.671Z,62.28
2023-10-03T03:24:01.116Z,59.31
2023-10-03T03:29:07.475Z,59.58
2023-10-03T03:34:09.188Z,65.58
2023-10-03T03:39:17.154Z,64.74
2023-10-03T03:44:20.205Z,62.61
2023-10-03T03:49:23.907Z,61.19
2023-10-03T03:54:26.520Z,60.30
2023-10-03T03:59:28.740Z,57.20
2023-10-03T04:04:30.485Z,58.68
2023-10-03T04:09:32.732Z,64.37
2023-10-03T04:14:34.553Z,65.02
2023-10-03T04:19:36.518Z,64.10
2023-10-03T04:24:38.297Z,62.19
2023-10-03T04:29:40.007Z,61.49
2023-10-03T04:34:42.167Z,61.08
2023-10-03T04:39:44.245Z,59.96
2023-10-03T04:44:45.964Z,59.78
2023-10-03T04:49:47.698Z,58.58
2023-10-03T04:54:49.373Z,61.03
2023-10-03T04:59:51.376Z,64.52
2023-10-03T05:04:53.133Z,63.26
2023-10-03T05:09:55.119Z,61.45
2023-10-03T05:14:56.734Z,60.00
2023-10-03T05:19:59.897Z,59.22
2023-10-03T05:25:02.099Z,63.36
2023-10-03T05:30:06.108Z,63.04
2023-10-03T05:35:09.501Z,59.03
2023-10-03T05:40:19.713Z,57.92
2023-10-03T05:45:21.525Z,60.45
2023-10-03T05:50:24.524Z,62.73
2023-10-03T05:55:26.378Z,57.72
2023-10-03T06:00:28.457Z,59.61
2023-10-03T06:05:30.105Z,61.40
2023-10-03T06:10:31.716Z,55.22
2023-10-03T06:15:36.973Z,57.78
2023-10-03T06:20:39.097Z,57.60
2023-10-03T06:25:40.841Z,58.83
2023-10-03T06:30:42.766Z,60.71
2023-10-03T06:35:44.512Z,58.37
2023-10-03T06:40:47.038Z,58.24
2023-10-03T06:45:48.771Z,58.24
2023-10-03T06:50:51.688Z,54.96
2023-10-03T06:55:54.369Z,53.67
2023-10-03T07:00:56.531Z,53.01
2023-10-03T07:05:59.313Z,51.57
2023-10-03T07:11:01.870Z,51.94
2023-10-03T07:16:04.570Z,51.65
2023-10-03T07:21:06.360Z,49.68
2023-10-03T07:26:08.234Z,45.33
2023-10-03T07:31:13.401Z,42.65
2023-10-03T07:36:17.917Z,40.45
2023-10-03T07:41:20.785Z,39.32
2023-10-03T07:46:24.596Z,38.96
2023-10-03T07:51:30.671Z,37.53
2023-10-03T07:56:34.110Z,37.53
2023-10-03T08:01:57.679Z,35.51
2023-10-03T08:07:01.604Z,36.06
2023-10-03T08:12:12.302Z,34.89
2023-10-03T08:17:16.624Z,33.98
2023-10-03T08:22:20.700Z,33.31
2023-10-03T08:27:23.104Z,31.90
2023-10-03T08:32:28.335Z,30.45
2023-10-03T08:37:30.147Z,31.00
2023-10-03T08:42:35.056Z,30.25
2023-10-03T08:47:39.336Z,29.71
2023-10-03T08:52:49.719Z,30.03
2023-10-03T08:57:51.697Z,29.40
2023-10-03T09:03:09.874Z,28.08
2023-10-03T09:08:16.850Z,27.54
2023-10-03T09:13:26.831Z,27.52
2023-10-03T09:18:41.372Z,27.73
2023-10-03T09:24:27.338Z,28.25
2023-10-03T09:29:32.556Z,29.29
2023-10-03T09:34:40.809Z,30.57
2023-10-03T09:39:52.216Z,31.01
2023-10-03T09:45:00.678Z,31.59
2023-10-03T09:50:06.943Z,32.14
2023-10-03T09:55:21.722Z,31.77
2023-10-03T10:00:26.055Z,31.20
2023-10-03T10:05:29.849Z,30.73
2023-10-03T10:10:34.059Z,30.03
2023-10-03T10:16:01.749Z,28.70
2023-10-03T10:21:38.473Z,27.38
2023-10-03T10:26:40.622Z,26.03
2023-10-03T10:31:45.737Z,25.58
2023-10-03T10:37:03.159Z,26.17
2023-10-03T10:42:10.223Z,26.99
2023-10-03T10:47:14.939Z,27.55
2023-10-03T10:52:20.099Z,28.69
2023-10-03T10:57:27.391Z,31.40
2023-10-03T11:02:34.146Z,33.56
2023-10-03T11:07:37.623Z,35.62
2023-10-03T11:12:39.356Z,35.66
2023-10-03T11:17:48.985Z,33.70
2023-10-03T11:22:50.837Z,33.39
2023-10-03T11:27:52.581Z,33.42
2023-10-03T11:33:02.044Z,33.33
2023-10-03T11:38:07.238Z,33.45
2023-10-03T11:43:08.907Z,32.82
2023-10-03T11:48:19.825Z,31.29
2023-10-03T11:53:22.398Z,31.64
2023-10-03T11:58:24.192Z,31.96
2023-10-03T12:03:25.843Z,31.69
2023-10-03T12:08:28.656Z,31.18
2023-10-03T12:13:30.533Z,31.16
2023-10-03T12:18:32.322Z,31.14
2023-10-03T12:23:35.741Z,30.46
2023-10-03T12:28:37.447Z,29.11
2023-10-03T12:33:39.192Z,29.01
2023-10-03T12:38:40.922Z,29.52
2023-10-03T12:43:47.040Z,30.97
2023-10-03T12:48:48.838Z,32.70
2023-10-03T12:53:52.963Z,34.89
2023-10-03T12:58:57.906Z,36.56
2023-10-03T13:03:59.967Z,38.31
2023-10-03T13:09:01.892Z,39.65
2023-10-03T13:14:04.929Z,40.34
2023-10-03T13:19:08.168Z,41.16
2023-10-03T13:24:10.605Z,41.78
2023-10-03T13:29:12.715Z,42.55
2023-10-03T13:34:15.081Z,42.79
2023-10-03T13:39:19.829Z,43.09
2023-10-03T13:44:21.695Z,43.11
2023-10-03T13:49:25.133Z,43.37
2023-10-03T13:54:31.090Z,43.61
2023-10-03T13:59:33.306Z,43.67
2023-10-03T14:04:37.202Z,43.71
2023-10-03T14:09:40.103Z,43.74
2023-10-03T14:14:43.070Z,43.64
2023-10-03T14:19:45.000Z,43.81
2023-10-03T14:24:47.253Z,43.98
2023-10-03T14:29:48.860Z,44.08
2023-10-03T14:34:51.965Z,44.45
2023-10-03T14:39:53.645Z,44.62
2023-10-03T14:44:55.341Z,44.72
2023-10-03T14:49:57.911Z,44.78
2023-10-03T14:54:59.905Z,44.74
2023-10-03T15:00:02.264Z,44.90
2023-10-03T15:05:06.847Z,44.92
2023-10-03T15:10:10.049Z,45.08
2023-10-03T15:15:12.823Z,45.32
2023-10-03T15:20:17.457Z,45.42
2023-10-03T15:25:19.582Z,45.42
2023-10-03T15:30:21.323Z,45.55
2023-10-03T15:35:23.448Z,45.74
2023-10-03T15:40:28.291Z,45.82
2023-10-03T15:45:34.391Z,45.92
2023-10-03T15:50:37.079Z,46.06
2023-10-03T15:55:39.123Z,46.22
2023-10-03T16:00:41.566Z,46.34
2023-10-03T16:05:43.271Z,46.40
2023-10-03T16:10:45.004Z,46.52
2023-10-03T16:15:48.085Z,46.54
2023-10-03T16:20:50.014Z,46.73
2023-10-03T16:25:51.795Z,46.92
2023-10-03T16:30:53.676Z,47.11
2023-10-03T16:35:57.326Z,47.21
2023-10-03T16:40:59.061Z,47.38
2023-10-03T16:46:04.042Z,47.52
2023-10-03T16:51:05.852Z,47.81
2023-10-03T16:56:08.483Z,48.11
2023-10-03T17:01:10.287Z,48.31
2023-10-03T17:06:12.241Z,48.54
2023-10-03T17:11:14.529Z,48.89
2023-10-03T17:16:16.410Z,49.11
2023-10-03T17:21:21.695Z,49.12
2023-10-03T17:26:23.857Z,49.74
2023-10-03T17:31:25.909Z,49.72
2023-10-03T17:36:27.899Z,50.20
2023-10-03T17:41:29.606Z,50.30
2023-10-03T17:46:32.594Z,50.29
2023-10-03T17:51:35.320Z,50.37
2023-10-03T17:56:37.090Z,50.67
2023-10-03T18:01:38.842Z,50.39
2023-10-03T18:06:40.681Z,50.43
2023-10-03T18:11:42.527Z,50.87
2023-10-03T18:16:44.508Z,51.13
2023-10-03T18:21:46.742Z,51.02
2023-10-03T18:26:49.711Z,51.62
2023-10-03T18:31:51.386Z,51.54
2023-10-03T18:36:53.058Z,51.59
2023-10-03T18:41:54.778Z,52.39
2023-10-03T18:46:56.674Z,52.20
2023-10-03T18:51:58.493Z,52.46
2023-10-03T18:57:00.638Z,52.71
2023-10-03T19:02:02.403Z,52.62
2023-10-03T19:07:05.016Z,52.70
2023-10-03T19:12:07.164Z,52.90
2023-10-03T19:17:09.022Z,53.22
2023-10-03T19:22:11.413Z,53.44
2023-10-03T19:27:13.109Z,53.91
2023-10-03T19:32:18.118Z,53.90
2023-10-03T19:37:19.870Z,54.30
2023-10-03T19:42:22.636Z,54.75
2023-10-03T19:47:24.946Z,54.96
2023-10-03T19:52:26.590Z,55.44
2023-10-03T19:57:28.346Z,55.51
2023-10-03T20:02:29.999Z,56.12
2023-10-03T20:07:31.717Z,59.08
2023-10-03T20:12:35.444Z,61.43
2023-10-03T20:17:37.017Z,62.40
2023-10-03T20:22:42.735Z,59.74
2023-10-03T20:27:45.181Z,61.16
2023-10-03T20:32:46.897Z,62.71
2023-10-03T20:37:48.835Z,60.66
2023-10-03T20:42:50.921Z,60.62
2023-10-03T20:47:53.102Z,63.30
2023-10-03T20:52:55.002Z,61.34
2023-10-03T20:57:56.961Z,58.63
2023-10-03T21:02:58.908Z,63.40
2023-10-03T21:08:02.830Z,63.90
2023-10-03T21:13:04.661Z,62.08
2023-10-03T21:18:09.195Z,62.16
2023-10-03T21:23:10.889Z,63.46
2023-10-03T21:28:13.171Z,63.92
2023-10-03T21:33:14.909Z,65.29
2023-10-03T21:38:17.664Z,66.50
2023-10-03T21:43:19.297Z,66.74
2023-10-03T21:48:21.869Z,66.27
2023-10-03T21:53:23.608Z,65.95
2023-10-03T21:58:25.286Z,65.51
2023-10-03T22:03:28.190Z,65.10
2023-10-03T22:08:32.344Z,65.23
2023-10-03T22:13:34.094Z,65.06
2023-10-03T22:18:38.470Z,64.36
2023-10-03T22:23:40.304Z,64.34
2023-10-03T22:28:41.983Z,64.36
2023-10-03T22:33:44.087Z,63.98
2023-10-03T22:38:47.078Z,63.69
2023-10-03T22:43:49.166Z,63.66
2023-10-03T22:48:51.311Z,63.35
2023-10-03T22:53:53.166Z,63.95
2023-10-03T22:58:55.150Z,65.41
2023-10-03T23:03:56.848Z,66.29
2023-10-03T23:08:58.561Z,66.77
2023-10-03T23:14:00.852Z,65.46
2023-10-03T23:19:03.831Z,64.98
2023-10-03T23:24:10.509Z,64.45
2023-10-03T23:29:12.433Z,64.20
2023-10-03T23:34:16.507Z,63.96
2023-10-03T23:39:19.944Z,63.71
2023-10-03T23:44:21.664Z,63.38
2023-10-03T23:49:23.595Z,63.57
2023-10-03T23:54:25.247Z,63.42
2023-10-03T23:59:27.204Z,63.40
